Arlington, NJ

3:44 AM EST on November 22, 2014 (GMT -0500)
APRSWXNET Harrison NJ US | Change Station
CLOSE
Current Station
Personal Weather Station
Location: Harrison, NJ
Elevation: 22 ft
Nearby Weather Stations

Elev 22 ft 40.75 °N, 74.15 °W | Updated 35 minutes ago

Clear
Clear
28 °F
Feels Like 28 °F
N
1
Wind Variable Wind from West
Gusts 5.0 mph

Today
High -- | Low -- °F
--% Chance of Precip.
Yesterday
High -- | Low -- °F
Precip. -- in
6:51 AM 4:33 PM
Waning Crescent, 0% visible
Pressure 30.51 in
Visibility 10.0 miles
Clouds Clear
Windchill 28 °F
Dew Point 10 °F
Humidity 46%
Rainfall 0.00 in
Snow Depth Not available.
UV 0 out of 12
Pollen .10 out of 12
Air Quality Not available.
Flu Activity Not available.
METAR KEWR 220751Z 24004KT 10SM CLR M04/M12 A3051 RMK AO2 SLP329 T10411117

More Conditions Fewer Conditions

Pressure 30.51 in
Visibility 10.0 miles
Clouds Clear
Windchill 28 °F
Dew Point 10 °F
Humidity 46%
Rainfall 0.00 in
Snow Depth Not available.
UV 0 out of 12
Pollen .10 out of 12
Air Quality Not available.
Flu Activity Not available.
METAR KEWR 220751Z 24004KT 10SM CLR M04/M12 A3051 RMK AO2 SLP329 T10411117

More Conditions Fewer Conditions

10-Day Weather Forecast

Almanac

Astronomy

Nov. 22, 2014 Rise Set
Actual Time
Civil Twilight
Nautical Twilight
Astronomical Twilight
Moon
Length of Visible Light
Length of Day
Tomorrow will be .
, % of the Moon is Illuminated

Today's Extremes

State Highs State Lows

Community

WunderPhotos

Upload Photos

1,772,794 photos uploaded!

WunderBlogs® & News

Nearby

Air Quality

  Air Quality AQ Index Pollutant
Not available.

Snow Depth

Station Depth Elevation

Earthquake Activity

City Distance Mag. Time & Date
Minimum magnitude displayed is 2.5.

Coastal Water Temperatures

Place Temperature

Nearby Weather Stations